sensor_id;sensor_type;location;lat;lon;timestamp;temperature;humidity
14901;DHT22;7542;49.078;9.194;2022-08-19T00:02:01;22.90;69.10
14901;DHT22;7542;49.078;9.194;2022-08-19T00:04:31;22.80;68.90
14901;DHT22;7542;49.078;9.194;2022-08-19T00:07:02;22.80;68.90
14901;DHT22;7542;49.078;9.194;2022-08-19T00:09:30;22.80;69.00
14901;DHT22;7542;49.078;9.194;2022-08-19T00:11:59;22.80;69.00
14901;DHT22;7542;49.078;9.194;2022-08-19T00:14:27;22.80;68.90
14901;DHT22;7542;49.078;9.194;2022-08-19T00:16:56;23.60;69.40
14901;DHT22;7542;49.078;9.194;2022-08-19T00:19:24;22.80;68.90
14901;DHT22;7542;49.078;9.194;2022-08-19T00:21:51;22.80;68.90
14901;DHT22;7542;49.078;9.194;2022-08-19T00:24:18;22.70;68.90
14901;DHT22;7542;49.078;9.194;2022-08-19T00:26:46;22.80;68.90
14901;DHT22;7542;49.078;9.194;2022-08-19T00:29:15;22.80;68.90
14901;DHT22;7542;49.078;9.194;2022-08-19T00:31:43;22.80;68.90
14901;DHT22;7542;49.078;9.194;2022-08-19T00:34:12;22.90;69.10
14901;DHT22;7542;49.078;9.194;2022-08-19T00:36:41;22.80;68.90
14901;DHT22;7542;49.078;9.194;2022-08-19T00:39:09;22.80;68.90
14901;DHT22;7542;49.078;9.194;2022-08-19T00:41:38;22.80;68.90
14901;DHT22;7542;49.078;9.194;2022-08-19T00:44:27;22.70;68.90
14901;DHT22;7542;49.078;9.194;2022-08-19T00:46:57;22.80;68.90
14901;DHT22;7542;49.078;9.194;2022-08-19T00:49:40;23.60;69.40
14901;DHT22;7542;49.078;9.194;2022-08-19T00:52:15;22.70;69.00
14901;DHT22;7542;49.078;9.194;2022-08-19T00:54:46;22.70;68.90
14901;DHT22;7542;49.078;9.194;2022-08-19T00:57:22;22.70;69.10
14901;DHT22;7542;49.078;9.194;2022-08-19T00:59:56;22.60;69.00
14901;DHT22;7542;49.078;9.194;2022-08-19T01:02:30;22.60;69.50
14901;DHT22;7542;49.078;9.194;2022-08-19T01:05:00;22.60;69.50
14901;DHT22;7542;49.078;9.194;2022-08-19T01:07:28;22.70;69.70
14901;DHT22;7542;49.078;9.194;2022-08-19T01:10:08;22.60;69.70
14901;DHT22;7542;49.078;9.194;2022-08-19T01:12:38;22.60;69.60
14901;DHT22;7542;49.078;9.194;2022-08-19T01:15:09;22.60;69.50
14901;DHT22;7542;49.078;9.194;2022-08-19T01:17:40;22.60;69.60
14901;DHT22;7542;49.078;9.194;2022-08-19T01:20:20;22.60;69.90
14901;DHT22;7542;49.078;9.194;2022-08-19T01:22:52;22.60;70.00
14901;DHT22;7542;49.078;9.194;2022-08-19T01:25:26;22.60;70.00
14901;DHT22;7542;49.078;9.194;2022-08-19T01:27:56;22.60;70.10
14901;DHT22;7542;49.078;9.194;2022-08-19T01:30:36;22.60;70.10
14901;DHT22;7542;49.078;9.194;2022-08-19T01:33:03;22.60;70.20
14901;DHT22;7542;49.078;9.194;2022-08-19T01:35:32;22.50;70.30
14901;DHT22;7542;49.078;9.194;2022-08-19T01:38:02;22.60;70.30
14901;DHT22;7542;49.078;9.194;2022-08-19T01:40:37;22.60;70.50
14901;DHT22;7542;49.078;9.194;2022-08-19T01:43:06;22.60;70.50
14901;DHT22;7542;49.078;9.194;2022-08-19T01:45:35;22.50;70.60
14901;DHT22;7542;49.078;9.194;2022-08-19T01:48:02;22.50;70.80
14901;DHT22;7542;49.078;9.194;2022-08-19T01:50:32;22.50;71.00
14901;DHT22;7542;49.078;9.194;2022-08-19T01:53:02;22.50;71.00
14901;DHT22;7542;49.078;9.194;2022-08-19T01:55:37;22.50;71.30
14901;DHT22;7542;49.078;9.194;2022-08-19T01:58:13;22.50;71.20
14901;DHT22;7542;49.078;9.194;2022-08-19T02:00:46;22.40;71.20
14901;DHT22;7542;49.078;9.194;2022-08-19T02:03:14;22.40;71.20
14901;DHT22;7542;49.078;9.194;2022-08-19T02:05:42;22.40;71.10
14901;DHT22;7542;49.078;9.194;2022-08-19T02:08:10;23.30;71.80
14901;DHT22;7542;49.078;9.194;2022-08-19T02:10:43;23.00;71.60
14901;DHT22;7542;49.078;9.194;2022-08-19T02:13:12;22.40;71.40
14901;DHT22;7542;49.078;9.194;2022-08-19T02:15:39;22.30;71.50
14901;DHT22;7542;49.078;9.194;2022-08-19T02:18:07;22.30;71.70
14901;DHT22;7542;49.078;9.194;2022-08-19T02:20:35;22.40;71.80
14901;DHT22;7542;49.078;9.194;2022-08-19T02:23:03;22.30;71.90
14901;DHT22;7542;49.078;9.194;2022-08-19T02:25:39;22.40;71.80
14901;DHT22;7542;49.078;9.194;2022-08-19T02:28:07;22.40;71.80
14901;DHT22;7542;49.078;9.194;2022-08-19T02:30:34;22.60;72.00
14901;DHT22;7542;49.078;9.194;2022-08-19T02:33:01;22.30;72.20
14901;DHT22;7542;49.078;9.194;2022-08-19T02:35:27;22.30;72.30
14901;DHT22;7542;49.078;9.194;2022-08-19T02:37:54;22.20;72.20
14901;DHT22;7542;49.078;9.194;2022-08-19T02:40:40;22.30;72.40
14901;DHT22;7542;49.078;9.194;2022-08-19T02:43:08;22.20;72.50
14901;DHT22;7542;49.078;9.194;2022-08-19T02:45:38;22.20;72.70
14901;DHT22;7542;49.078;9.194;2022-08-19T02:48:08;22.20;72.90
14901;DHT22;7542;49.078;9.194;2022-08-19T02:50:49;22.20;73.20
14901;DHT22;7542;49.078;9.194;2022-08-19T02:53:23;22.90;73.90
14901;DHT22;7542;49.078;9.194;2022-08-19T02:55:53;22.60;73.80
14901;DHT22;7542;49.078;9.194;2022-08-19T02:58:21;22.10;73.70
14901;DHT22;7542;49.078;9.194;2022-08-19T03:00:54;22.10;73.70
14901;DHT22;7542;49.078;9.194;2022-08-19T03:03:22;22.10;73.90
14901;DHT22;7542;49.078;9.194;2022-08-19T03:05:50;22.10;74.00
14901;DHT22;7542;49.078;9.194;2022-08-19T03:08:23;22.10;74.20
14901;DHT22;7542;49.078;9.194;2022-08-19T03:10:51;22.00;74.30
14901;DHT22;7542;49.078;9.194;2022-08-19T03:13:19;22.00;74.50
14901;DHT22;7542;49.078;9.194;2022-08-19T03:15:47;22.00;74.70
14901;DHT22;7542;49.078;9.194;2022-08-19T03:18:15;22.00;75.00
14901;DHT22;7542;49.078;9.194;2022-08-19T03:20:52;21.90;75.30
14901;DHT22;7542;49.078;9.194;2022-08-19T03:23:21;22.00;75.40
14901;DHT22;7542;49.078;9.194;2022-08-19T03:25:52;21.90;75.60
14901;DHT22;7542;49.078;9.194;2022-08-19T03:28:40;21.90;75.90
14901;DHT22;7542;49.078;9.194;2022-08-19T03:31:17;21.90;76.10
14901;DHT22;7542;49.078;9.194;2022-08-19T03:34:05;21.90;76.20
14901;DHT22;7542;49.078;9.194;2022-08-19T03:36:33;21.80;76.20
14901;DHT22;7542;49.078;9.194;2022-08-19T03:39:01;21.80;76.60
14901;DHT22;7542;49.078;9.194;2022-08-19T03:41:30;21.80;76.40
14901;DHT22;7542;49.078;9.194;2022-08-19T03:44:10;21.80;76.50
14901;DHT22;7542;49.078;9.194;2022-08-19T03:46:45;21.80;76.60
14901;DHT22;7542;49.078;9.194;2022-08-19T03:49:15;21.80;76.80
14901;DHT22;7542;49.078;9.194;2022-08-19T03:51:44;21.80;77.00
14901;DHT22;7542;49.078;9.194;2022-08-19T03:54:15;22.90;77.80
14901;DHT22;7542;49.078;9.194;2022-08-19T03:56:46;21.80;77.20
14901;DHT22;7542;49.078;9.194;2022-08-19T03:59:22;21.70;77.50
14901;DHT22;7542;49.078;9.194;2022-08-19T04:01:53;21.70;77.50
14901;DHT22;7542;49.078;9.194;2022-08-19T04:04:21;21.70;77.70
14901;DHT22;7542;49.078;9.194;2022-08-19T04:06:49;21.70;77.70
14901;DHT22;7542;49.078;9.194;2022-08-19T04:09:18;21.60;77.70
14901;DHT22;7542;49.078;9.194;2022-08-19T04:11:49;21.70;77.90
14901;DHT22;7542;49.078;9.194;2022-08-19T04:14:25;21.50;78.00
14901;DHT22;7542;49.078;9.194;2022-08-19T04:16:57;21.80;78.00
14901;DHT22;7542;49.078;9.194;2022-08-19T04:19:26;21.50;77.80
14901;DHT22;7542;49.078;9.194;2022-08-19T04:21:59;21.50;77.90
14901;DHT22;7542;49.078;9.194;2022-08-19T04:24:26;21.60;78.10
14901;DHT22;7542;49.078;9.194;2022-08-19T04:26:53;21.60;78.30
14901;DHT22;7542;49.078;9.194;2022-08-19T04:29:24;21.60;78.50
14901;DHT22;7542;49.078;9.194;2022-08-19T04:31:55;21.60;78.70
14901;DHT22;7542;49.078;9.194;2022-08-19T04:34:25;21.60;78.90
14901;DHT22;7542;49.078;9.194;2022-08-19T04:36:56;21.60;79.20
14901;DHT22;7542;49.078;9.194;2022-08-19T04:39:30;21.60;79.40
14901;DHT22;7542;49.078;9.194;2022-08-19T04:42:17;21.60;79.50
14901;DHT22;7542;49.078;9.194;2022-08-19T04:45:05;21.60;79.10
14901;DHT22;7542;49.078;9.194;2022-08-19T04:47:39;21.50;78.90
14901;DHT22;7542;49.078;9.194;2022-08-19T04:50:17;21.50;79.10
14901;DHT22;7542;49.078;9.194;2022-08-19T04:52:45;21.50;79.30
14901;DHT22;7542;49.078;9.194;2022-08-19T04:55:12;21.50;79.50
14901;DHT22;7542;49.078;9.194;2022-08-19T04:57:40;21.50;79.50
14901;DHT22;7542;49.078;9.194;2022-08-19T05:00:09;21.60;79.70
14901;DHT22;7542;49.078;9.194;2022-08-19T05:02:37;21.50;79.60
14901;DHT22;7542;49.078;9.194;2022-08-19T05:05:04;21.50;79.60
14901;DHT22;7542;49.078;9.194;2022-08-19T05:07:32;21.50;79.50
14901;DHT22;7542;49.078;9.194;2022-08-19T05:10:00;21.50;79.50
14901;DHT22;7542;49.078;9.194;2022-08-19T05:12:27;21.50;79.60
14901;DHT22;7542;49.078;9.194;2022-08-19T05:14:56;21.60;79.70
14901;DHT22;7542;49.078;9.194;2022-08-19T05:17:26;21.40;79.70
14901;DHT22;7542;49.078;9.194;2022-08-19T05:20:00;21.50;79.70
14901;DHT22;7542;49.078;9.194;2022-08-19T05:22:47;21.50;79.90
14901;DHT22;7542;49.078;9.194;2022-08-19T05:25:18;21.50;79.70
14901;DHT22;7542;49.078;9.194;2022-08-19T05:27:47;21.60;79.50
14901;DHT22;7542;49.078;9.194;2022-08-19T05:30:15;21.60;79.40
14901;DHT22;7542;49.078;9.194;2022-08-19T05:32:43;21.60;79.10
14901;DHT22;7542;49.078;9.194;2022-08-19T05:35:10;21.60;79.10
14901;DHT22;7542;49.078;9.194;2022-08-19T05:37:38;21.70;79.00
14901;DHT22;7542;49.078;9.194;2022-08-19T05:40:07;21.70;78.90
14901;DHT22;7542;49.078;9.194;2022-08-19T05:42:35;21.60;78.90
14901;DHT22;7542;49.078;9.194;2022-08-19T05:45:03;22.50;79.40
14901;DHT22;7542;49.078;9.194;2022-08-19T05:47:31;21.70;79.30
14901;DHT22;7542;49.078;9.194;2022-08-19T05:49:58;21.70;79.30
14901;DHT22;7542;49.078;9.194;2022-08-19T05:52:30;21.70;79.10
14901;DHT22;7542;49.078;9.194;2022-08-19T05:54:59;21.70;78.90
14901;DHT22;7542;49.078;9.194;2022-08-19T05:57:25;21.70;78.70
14901;DHT22;7542;49.078;9.194;2022-08-19T05:59:55;21.80;78.60
14901;DHT22;7542;49.078;9.194;2022-08-19T06:02:28;21.80;78.90
14901;DHT22;7542;49.078;9.194;2022-08-19T06:04:57;21.80;78.90
14901;DHT22;7542;49.078;9.194;2022-08-19T06:07:24;21.80;78.80
14901;DHT22;7542;49.078;9.194;2022-08-19T06:09:51;21.80;78.70
14901;DHT22;7542;49.078;9.194;2022-08-19T06:12:28;21.70;78.40
14901;DHT22;7542;49.078;9.194;2022-08-19T06:14:59;21.80;78.20
14901;DHT22;7542;49.078;9.194;2022-08-19T06:17:31;21.70;78.30
14901;DHT22;7542;49.078;9.194;2022-08-19T06:20:05;21.70;78.50
14901;DHT22;7542;49.078;9.194;2022-08-19T06:22:42;21.70;78.50
14901;DHT22;7542;49.078;9.194;2022-08-19T06:25:12;21.70;78.70
14901;DHT22;7542;49.078;9.194;2022-08-19T06:27:41;21.70;78.70
14901;DHT22;7542;49.078;9.194;2022-08-19T06:30:28;21.80;78.40
14901;DHT22;7542;49.078;9.194;2022-08-19T06:32:56;21.70;78.50
14901;DHT22;7542;49.078;9.194;2022-08-19T06:35:23;21.80;78.30
14901;DHT22;7542;49.078;9.194;2022-08-19T06:37:49;21.80;78.30
14901;DHT22;7542;49.078;9.194;2022-08-19T06:40:16;21.80;78.40
14901;DHT22;7542;49.078;9.194;2022-08-19T06:42:43;21.80;78.40
14901;DHT22;7542;49.078;9.194;2022-08-19T06:45:22;21.80;78.30
14901;DHT22;7542;49.078;9.194;2022-08-19T06:47:51;19.80;76.80
14901;DHT22;7542;49.078;9.194;2022-08-19T06:50:23;21.90;78.00
14901;DHT22;7542;49.078;9.194;2022-08-19T06:52:51;21.90;77.90
14901;DHT22;7542;49.078;9.194;2022-08-19T06:55:18;21.90;77.90
14901;DHT22;7542;49.078;9.194;2022-08-19T06:57:46;21.90;77.90
14901;DHT22;7542;49.078;9.194;2022-08-19T07:00:14;21.90;77.80
14901;DHT22;7542;49.078;9.194;2022-08-19T07:02:43;21.90;77.80
14901;DHT22;7542;49.078;9.194;2022-08-19T07:05:21;21.90;78.00
14901;DHT22;7542;49.078;9.194;2022-08-19T07:07:48;21.90;78.00
14901;DHT22;7542;49.078;9.194;2022-08-19T07:10:16;21.90;77.90
14901;DHT22;7542;49.078;9.194;2022-08-19T07:12:43;21.90;78.00
14901;DHT22;7542;49.078;9.194;2022-08-19T07:15:11;22.10;77.90
14901;DHT22;7542;49.078;9.194;2022-08-19T07:17:38;22.00;77.70
14901;DHT22;7542;49.078;9.194;2022-08-19T07:20:08;22.00;77.60
14901;DHT22;7542;49.078;9.194;2022-08-19T07:22:37;22.20;77.20
14901;DHT22;7542;49.078;9.194;2022-08-19T07:25:07;22.30;77.30
14901;DHT22;7542;49.078;9.194;2022-08-19T07:27:36;22.20;76.90
14901;DHT22;7542;49.078;9.194;2022-08-19T07:30:06;22.20;76.60
14901;DHT22;7542;49.078;9.194;2022-08-19T07:32:38;22.40;76.20
14901;DHT22;7542;49.078;9.194;2022-08-19T07:35:06;22.60;75.90
14901;DHT22;7542;49.078;9.194;2022-08-19T07:37:33;22.60;75.10
14901;DHT22;7542;49.078;9.194;2022-08-19T07:40:06;22.60;74.80
14901;DHT22;7542;49.078;9.194;2022-08-19T07:42:33;22.60;74.90
14901;DHT22;7542;49.078;9.194;2022-08-19T07:45:00;22.60;75.10
14901;DHT22;7542;49.078;9.194;2022-08-19T07:47:27;22.60;74.80
14901;DHT22;7542;49.078;9.194;2022-08-19T07:50:15;22.70;75.00
14901;DHT22;7542;49.078;9.194;2022-08-19T07:52:42;22.70;75.20
14901;DHT22;7542;49.078;9.194;2022-08-19T07:55:15;23.10;75.00
14901;DHT22;7542;49.078;9.194;2022-08-19T07:58:04;22.70;74.90
14901;DHT22;7542;49.078;9.194;2022-08-19T08:00:31;22.70;75.00
14901;DHT22;7542;49.078;9.194;2022-08-19T08:02:58;22.70;75.00
14901;DHT22;7542;49.078;9.194;2022-08-19T08:05:25;22.70;75.20
14901;DHT22;7542;49.078;9.194;2022-08-19T08:08:12;22.70;75.20
14901;DHT22;7542;49.078;9.194;2022-08-19T08:10:59;22.80;75.20
14901;DHT22;7542;49.078;9.194;2022-08-19T08:13:27;22.80;75.20
14901;DHT22;7542;49.078;9.194;2022-08-19T08:15:55;22.80;74.90
14901;DHT22;7542;49.078;9.194;2022-08-19T08:18:24;22.80;74.80
14901;DHT22;7542;49.078;9.194;2022-08-19T08:20:55;22.80;75.10
14901;DHT22;7542;49.078;9.194;2022-08-19T08:23:23;22.80;75.20
14901;DHT22;7542;49.078;9.194;2022-08-19T08:25:54;22.70;75.40
14901;DHT22;7542;49.078;9.194;2022-08-19T08:28:25;22.70;75.60
14901;DHT22;7542;49.078;9.194;2022-08-19T08:30:56;22.70;75.70
14901;DHT22;7542;49.078;9.194;2022-08-19T08:33:27;22.70;76.00
14901;DHT22;7542;49.078;9.194;2022-08-19T08:36:04;22.70;76.20
14901;DHT22;7542;49.078;9.194;2022-08-19T08:38:32;22.60;76.20
14901;DHT22;7542;49.078;9.194;2022-08-19T08:41:31;22.70;76.20
14901;DHT22;7542;49.078;9.194;2022-08-19T08:44:49;22.70;76.40
14901;DHT22;7542;49.078;9.194;2022-08-19T08:47:45;22.70;76.70
14901;DHT22;7542;49.078;9.194;2022-08-19T08:50:21;23.50;77.00
14901;DHT22;7542;49.078;9.194;2022-08-19T08:52:57;22.80;76.20
14901;DHT22;7542;49.078;9.194;2022-08-19T08:55:27;22.90;76.20
14901;DHT22;7542;49.078;9.194;2022-08-19T08:58:20;23.00;76.00
14901;DHT22;7542;49.078;9.194;2022-08-19T09:00:55;23.00;75.90
14901;DHT22;7542;49.078;9.194;2022-08-19T09:03:26;23.10;75.80
14901;DHT22;7542;49.078;9.194;2022-08-19T09:14:50;23.80;73.10
14901;DHT22;7542;49.078;9.194;2022-08-19T09:17:25;23.80;73.00
14901;DHT22;7542;49.078;9.194;2022-08-19T09:20:14;23.80;72.70
14901;DHT22;7542;49.078;9.194;2022-08-19T09:22:45;23.90;72.70
14901;DHT22;7542;49.078;9.194;2022-08-19T09:25:15;24.00;72.20
14901;DHT22;7542;49.078;9.194;2022-08-19T09:27:54;24.00;72.10
14901;DHT22;7542;49.078;9.194;2022-08-19T09:30:31;24.10;71.90
14901;DHT22;7542;49.078;9.194;2022-08-19T09:33:00;24.10;71.50
14901;DHT22;7542;49.078;9.194;2022-08-19T09:35:29;24.10;71.80
14901;DHT22;7542;49.078;9.194;2022-08-19T09:37:57;24.00;71.40
14901;DHT22;7542;49.078;9.194;2022-08-19T09:40:30;24.00;70.10
14901;DHT22;7542;49.078;9.194;2022-08-19T09:43:03;24.00;70.20
14901;DHT22;7542;49.078;9.194;2022-08-19T09:45:36;24.00;71.00
14901;DHT22;7542;49.078;9.194;2022-08-19T09:48:04;23.90;71.40
14901;DHT22;7542;49.078;9.194;2022-08-19T09:50:32;23.80;71.60
14901;DHT22;7542;49.078;9.194;2022-08-19T09:53:00;23.70;72.00
14901;DHT22;7542;49.078;9.194;2022-08-19T09:55:27;23.70;72.70
14901;DHT22;7542;49.078;9.194;2022-08-19T09:58:01;23.60;73.50
14901;DHT22;7542;49.078;9.194;2022-08-19T10:00:30;23.50;74.30
14901;DHT22;7542;49.078;9.194;2022-08-19T10:02:57;23.40;74.70
14901;DHT22;7542;49.078;9.194;2022-08-19T10:05:24;23.50;74.90
14901;DHT22;7542;49.078;9.194;2022-08-19T10:08:10;23.40;74.50
14901;DHT22;7542;49.078;9.194;2022-08-19T10:10:42;23.40;74.10
14901;DHT22;7542;49.078;9.194;2022-08-19T10:13:14;23.40;73.70
14901;DHT22;7542;49.078;9.194;2022-08-19T10:15:42;23.40;73.50
14901;DHT22;7542;49.078;9.194;2022-08-19T10:18:13;23.40;73.10
14901;DHT22;7542;49.078;9.194;2022-08-19T10:20:40;23.50;72.30
14901;DHT22;7542;49.078;9.194;2022-08-19T10:23:09;23.50;71.60
14901;DHT22;7542;49.078;9.194;2022-08-19T10:25:36;24.40;71.10
14901;DHT22;7542;49.078;9.194;2022-08-19T10:28:04;23.80;68.70
14901;DHT22;7542;49.078;9.194;2022-08-19T10:30:37;24.00;68.10
14901;DHT22;7542;49.078;9.194;2022-08-19T10:33:05;24.30;66.80
14901;DHT22;7542;49.078;9.194;2022-08-19T10:35:37;24.50;65.80
14901;DHT22;7542;49.078;9.194;2022-08-19T10:38:22;24.70;65.20
14901;DHT22;7542;49.078;9.194;2022-08-19T10:41:05;24.70;64.60
14901;DHT22;7542;49.078;9.194;2022-08-19T10:43:40;25.10;63.80
14901;DHT22;7542;49.078;9.194;2022-08-19T10:46:11;25.20;62.90
14901;DHT22;7542;49.078;9.194;2022-08-19T10:48:44;25.40;62.00
14901;DHT22;7542;49.078;9.194;2022-08-19T10:51:12;25.50;61.20
14901;DHT22;7542;49.078;9.194;2022-08-19T10:53:58;25.50;60.80
14901;DHT22;7542;49.078;9.194;2022-08-19T10:56:26;25.50;60.60
14901;DHT22;7542;49.078;9.194;2022-08-19T10:59:13;25.50;60.10
14901;DHT22;7542;49.078;9.194;2022-08-19T11:01:44;26.00;60.20
14901;DHT22;7542;49.078;9.194;2022-08-19T11:04:12;25.50;59.70
14901;DHT22;7542;49.078;9.194;2022-08-19T11:06:40;25.40;59.80
14901;DHT22;7542;49.078;9.194;2022-08-19T11:09:10;25.30;60.20
14901;DHT22;7542;49.078;9.194;2022-08-19T11:11:38;25.20;60.70
14901;DHT22;7542;49.078;9.194;2022-08-19T11:14:11;25.20;61.10
14901;DHT22;7542;49.078;9.194;2022-08-19T11:16:41;25.10;61.00
14901;DHT22;7542;49.078;9.194;2022-08-19T11:19:10;25.00;61.20
14901;DHT22;7542;49.078;9.194;2022-08-19T11:21:41;25.00;61.20
14901;DHT22;7542;49.078;9.194;2022-08-19T11:24:16;25.00;61.40
14901;DHT22;7542;49.078;9.194;2022-08-19T11:26:47;25.00;61.40
14901;DHT22;7542;49.078;9.194;2022-08-19T11:29:18;25.00;61.40
14901;DHT22;7542;49.078;9.194;2022-08-19T11:31:48;25.00;61.10
14901;DHT22;7542;49.078;9.194;2022-08-19T11:34:19;25.10;60.40
14901;DHT22;7542;49.078;9.194;2022-08-19T11:36:50;25.20;60.70
14901;DHT22;7542;49.078;9.194;2022-08-19T11:39:21;25.20;60.70
14901;DHT22;7542;49.078;9.194;2022-08-19T11:41:48;25.20;60.30
14901;DHT22;7542;49.078;9.194;2022-08-19T11:44:15;25.20;59.80
14901;DHT22;7542;49.078;9.194;2022-08-19T11:46:44;25.20;59.80
14901;DHT22;7542;49.078;9.194;2022-08-19T11:49:14;25.10;60.20
14901;DHT22;7542;49.078;9.194;2022-08-19T11:51:46;25.00;61.30
14901;DHT22;7542;49.078;9.194;2022-08-19T11:54:14;24.90;61.10
14901;DHT22;7542;49.078;9.194;2022-08-19T11:56:43;24.80;61.50
14901;DHT22;7542;49.078;9.194;2022-08-19T11:59:12;24.80;61.70
14901;DHT22;7542;49.078;9.194;2022-08-19T12:01:40;24.90;62.10
14901;DHT22;7542;49.078;9.194;2022-08-19T12:04:09;25.00;61.30
14901;DHT22;7542;49.078;9.194;2022-08-19T12:06:38;25.10;60.30
14901;DHT22;7542;49.078;9.194;2022-08-19T12:09:08;25.30;60.10
14901;DHT22;7542;49.078;9.194;2022-08-19T12:11:37;25.40;59.80
14901;DHT22;7542;49.078;9.194;2022-08-19T12:14:06;25.50;59.40
14901;DHT22;7542;49.078;9.194;2022-08-19T12:16:40;25.50;59.00
14901;DHT22;7542;49.078;9.194;2022-08-19T12:19:18;25.40;59.20
14901;DHT22;7542;49.078;9.194;2022-08-19T12:21:49;25.20;61.00
14901;DHT22;7542;49.078;9.194;2022-08-19T12:24:17;25.10;70.30
14901;DHT22;7542;49.078;9.194;2022-08-19T12:26:49;24.80;74.30
14901;DHT22;7542;49.078;9.194;2022-08-19T12:29:20;24.60;77.40
14901;DHT22;7542;49.078;9.194;2022-08-19T12:31:50;24.50;81.40
14901;DHT22;7542;49.078;9.194;2022-08-19T12:34:17;24.40;79.90
14901;DHT22;7542;49.078;9.194;2022-08-19T12:36:46;24.40;81.10
14901;DHT22;7542;49.078;9.194;2022-08-19T12:39:15;24.40;83.20
14901;DHT22;7542;49.078;9.194;2022-08-19T12:41:42;24.40;83.10
14901;DHT22;7542;49.078;9.194;2022-08-19T12:44:21;24.50;83.00
14901;DHT22;7542;49.078;9.194;2022-08-19T12:46:55;24.60;79.10
14901;DHT22;7542;49.078;9.194;2022-08-19T12:49:23;24.60;83.80
14901;DHT22;7542;49.078;9.194;2022-08-19T12:52:11;24.60;82.90
14901;DHT22;7542;49.078;9.194;2022-08-19T12:54:42;24.60;84.10
14901;DHT22;7542;49.078;9.194;2022-08-19T12:57:10;24.60;84.30
14901;DHT22;7542;49.078;9.194;2022-08-19T12:59:38;24.40;84.70
14901;DHT22;7542;49.078;9.194;2022-08-19T13:02:06;24.40;82.80
14901;DHT22;7542;49.078;9.194;2022-08-19T13:04:34;24.40;82.20
14901;DHT22;7542;49.078;9.194;2022-08-19T13:07:02;24.30;83.50
14901;DHT22;7542;49.078;9.194;2022-08-19T13:09:30;24.20;84.80
14901;DHT22;7542;49.078;9.194;2022-08-19T13:11:56;24.20;85.60
14901;DHT22;7542;49.078;9.194;2022-08-19T13:14:23;24.10;82.00
14901;DHT22;7542;49.078;9.194;2022-08-19T13:16:52;24.10;83.10
14901;DHT22;7542;49.078;9.194;2022-08-19T13:19:19;20.60;81.90
14901;DHT22;7542;49.078;9.194;2022-08-19T13:21:49;24.10;84.20
14901;DHT22;7542;49.078;9.194;2022-08-19T13:24:25;24.10;83.80
14901;DHT22;7542;49.078;9.194;2022-08-19T13:27:00;24.20;83.40
14901;DHT22;7542;49.078;9.194;2022-08-19T13:29:27;24.80;77.40
14901;DHT22;7542;49.078;9.194;2022-08-19T13:32:12;24.60;77.80
14901;DHT22;7542;49.078;9.194;2022-08-19T13:34:57;24.80;80.30
14901;DHT22;7542;49.078;9.194;2022-08-19T13:37:24;25.10;74.50
14901;DHT22;7542;49.078;9.194;2022-08-19T13:40:15;25.20;72.90
14901;DHT22;7542;49.078;9.194;2022-08-19T13:42:50;25.20;78.30
14901;DHT22;7542;49.078;9.194;2022-08-19T13:45:21;25.00;72.50
14901;DHT22;7542;49.078;9.194;2022-08-19T13:47:52;25.00;79.30
14901;DHT22;7542;49.078;9.194;2022-08-19T13:50:27;24.90;72.40
14901;DHT22;7542;49.078;9.194;2022-08-19T13:52:57;24.80;72.20
14901;DHT22;7542;49.078;9.194;2022-08-19T13:55:26;24.70;73.80
14901;DHT22;7542;49.078;9.194;2022-08-19T13:57:55;24.60;74.40
14901;DHT22;7542;49.078;9.194;2022-08-19T14:00:26;24.50;81.00
14901;DHT22;7542;49.078;9.194;2022-08-19T14:02:57;24.50;83.60
14901;DHT22;7542;49.078;9.194;2022-08-19T14:05:26;24.30;79.80
14901;DHT22;7542;49.078;9.194;2022-08-19T14:07:55;24.30;78.50
14901;DHT22;7542;49.078;9.194;2022-08-19T14:10:23;24.00;77.70
14901;DHT22;7542;49.078;9.194;2022-08-19T14:12:59;24.10;77.20
14901;DHT22;7542;49.078;9.194;2022-08-19T14:15:28;24.10;76.50
14901;DHT22;7542;49.078;9.194;2022-08-19T14:17:55;24.20;73.50
14901;DHT22;7542;49.078;9.194;2022-08-19T14:20:23;24.20;71.90
14901;DHT22;7542;49.078;9.194;2022-08-19T14:22:52;24.30;75.00
14901;DHT22;7542;49.078;9.194;2022-08-19T14:25:23;24.30;74.30
14901;DHT22;7542;49.078;9.194;2022-08-19T14:27:53;24.40;74.90
14901;DHT22;7542;49.078;9.194;2022-08-19T14:30:24;24.40;75.30
14901;DHT22;7542;49.078;9.194;2022-08-19T14:32:58;24.40;75.30
14901;DHT22;7542;49.078;9.194;2022-08-19T14:35:27;24.40;76.80
14901;DHT22;7542;49.078;9.194;2022-08-19T14:37:55;24.50;76.40
14901;DHT22;7542;49.078;9.194;2022-08-19T14:40:26;24.40;75.50
14901;DHT22;7542;49.078;9.194;2022-08-19T14:42:57;24.40;74.30
14901;DHT22;7542;49.078;9.194;2022-08-19T14:45:39;24.30;73.50
14901;DHT22;7542;49.078;9.194;2022-08-19T14:48:08;24.30;75.40
14901;DHT22;7542;49.078;9.194;2022-08-19T14:50:45;24.20;77.40
14901;DHT22;7542;49.078;9.194;2022-08-19T14:53:12;24.20;78.50
14901;DHT22;7542;49.078;9.194;2022-08-19T14:55:43;24.20;79.50
14901;DHT22;7542;49.078;9.194;2022-08-19T14:58:11;24.10;77.50
14901;DHT22;7542;49.078;9.194;2022-08-19T15:00:56;24.10;78.60
14901;DHT22;7542;49.078;9.194;2022-08-19T15:03:25;24.00;74.90
14901;DHT22;7542;49.078;9.194;2022-08-19T15:05:52;24.00;75.00
14901;DHT22;7542;49.078;9.194;2022-08-19T15:08:19;23.90;75.10
14901;DHT22;7542;49.078;9.194;2022-08-19T15:10:48;23.90;75.50
14901;DHT22;7542;49.078;9.194;2022-08-19T15:13:15;24.00;76.40
14901;DHT22;7542;49.078;9.194;2022-08-19T15:15:42;24.00;78.30
14901;DHT22;7542;49.078;9.194;2022-08-19T15:18:09;24.00;78.10
14901;DHT22;7542;49.078;9.194;2022-08-19T15:20:38;24.00;77.90
14901;DHT22;7542;49.078;9.194;2022-08-19T15:23:07;24.00;78.10
14901;DHT22;7542;49.078;9.194;2022-08-19T15:25:34;24.20;77.20
14901;DHT22;7542;49.078;9.194;2022-08-19T15:28:02;24.30;77.00
14901;DHT22;7542;49.078;9.194;2022-08-19T15:30:29;24.40;76.30
14901;DHT22;7542;49.078;9.194;2022-08-19T15:32:57;24.50;76.30
14901;DHT22;7542;49.078;9.194;2022-08-19T15:35:24;24.50;76.90
14901;DHT22;7542;49.078;9.194;2022-08-19T15:37:52;26.70;78.10
14901;DHT22;7542;49.078;9.194;2022-08-19T15:40:22;24.70;77.50
14901;DHT22;7542;49.078;9.194;2022-08-19T15:42:51;24.80;77.40
14901;DHT22;7542;49.078;9.194;2022-08-19T15:45:21;25.00;77.00
14901;DHT22;7542;49.078;9.194;2022-08-19T15:47:48;25.20;76.90
14901;DHT22;7542;49.078;9.194;2022-08-19T15:50:17;25.30;75.70
14901;DHT22;7542;49.078;9.194;2022-08-19T15:52:52;25.40;74.80
14901;DHT22;7542;49.078;9.194;2022-08-19T15:55:29;25.30;74.10
14901;DHT22;7542;49.078;9.194;2022-08-19T15:58:05;25.20;74.60
14901;DHT22;7542;49.078;9.194;2022-08-19T16:00:57;25.10;76.20
14901;DHT22;7542;49.078;9.194;2022-08-19T16:03:51;25.30;76.90
14901;DHT22;7542;49.078;9.194;2022-08-19T16:06:52;24.90;77.30
14901;DHT22;7542;49.078;9.194;2022-08-19T16:09:23;24.80;78.30
14901;DHT22;7542;49.078;9.194;2022-08-19T16:12:04;24.80;78.50
14901;DHT22;7542;49.078;9.194;2022-08-19T16:14:32;24.80;78.10
14901;DHT22;7542;49.078;9.194;2022-08-19T16:17:00;24.70;78.10
14901;DHT22;7542;49.078;9.194;2022-08-19T16:19:27;24.80;77.70
14901;DHT22;7542;49.078;9.194;2022-08-19T16:21:55;24.80;76.80